createdAt,value
2022-08-21T00:00:31.592Z,18.69
2022-08-21T00:03:05.670Z,18.71
2022-08-21T00:05:33.996Z,18.66
2022-08-21T00:08:05.118Z,18.61
2022-08-21T00:10:32.518Z,18.56
2022-08-21T00:13:02.258Z,18.59
2022-08-21T00:15:34.798Z,18.61
2022-08-21T00:18:04.477Z,18.58
2022-08-21T00:20:36.752Z,18.66
2022-08-21T00:23:06.046Z,18.67
2022-08-21T00:25:33.661Z,18.63
2022-08-21T00:28:00.643Z,18.55
2022-08-21T00:30:27.940Z,18.54
2022-08-21T00:32:56.440Z,18.53
2022-08-21T00:35:34.141Z,18.45
2022-08-21T00:38:01.568Z,18.50
2022-08-21T00:40:43.648Z,18.55
2022-08-21T00:43:13.376Z,18.48
2022-08-21T00:45:40.632Z,18.46
2022-08-21T00:48:07.463Z,18.39
2022-08-21T00:50:40.584Z,18.34
2022-08-21T00:53:07.915Z,18.28
2022-08-21T00:55:38.375Z,18.30
2022-08-21T00:58:09.490Z,18.30
2022-08-21T01:00:44.278Z,18.22
2022-08-21T01:03:14.885Z,18.29
2022-08-21T01:05:45.161Z,18.25
2022-08-21T01:08:13.366Z,18.22
2022-08-21T01:10:42.634Z,18.29
2022-08-21T01:13:11.029Z,18.12
2022-08-21T01:15:40.071Z,18.16
2022-08-21T01:18:08.980Z,18.17
2022-08-21T01:20:36.880Z,18.13
2022-08-21T01:23:04.633Z,18.12
2022-08-21T01:25:33.054Z,18.14
2022-08-21T01:28:05.819Z,18.22
2022-08-21T01:30:36.204Z,18.06
2022-08-21T01:33:03.443Z,18.13
2022-08-21T01:35:30.323Z,18.13
2022-08-21T01:37:57.037Z,18.14
2022-08-21T01:40:23.940Z,18.12
2022-08-21T01:42:50.835Z,18.00
2022-08-21T01:45:17.915Z,18.03
2022-08-21T01:47:47.518Z,17.97
2022-08-21T01:50:21.232Z,17.94
2022-08-21T01:52:48.482Z,17.97
2022-08-21T01:55:19.089Z,17.83
2022-08-21T01:57:47.063Z,17.90
2022-08-21T02:00:21.188Z,17.94
2022-08-21T02:03:00.026Z,17.86
2022-08-21T02:05:26.929Z,17.90
2022-08-21T02:08:00.311Z,17.88
2022-08-21T02:10:36.963Z,17.93
2022-08-21T02:15:56.722Z,17.78
2022-08-21T02:18:24.486Z,17.82
2022-08-21T02:21:22.364Z,17.87
2022-08-21T02:24:07.695Z,17.74
2022-08-21T02:29:45.354Z,17.70
2022-08-21T02:32:17.103Z,17.65
2022-08-21T02:34:47.067Z,17.58
2022-08-21T02:37:36.089Z,17.54
2022-08-21T02:40:39.367Z,17.61
2022-08-21T02:43:22.346Z,17.61
2022-08-21T02:45:54.504Z,17.51
2022-08-21T02:48:27.976Z,17.44
2022-08-21T02:51:18.440Z,17.40
2022-08-21T02:53:49.243Z,17.36
2022-08-21T02:56:24.623Z,17.24
2022-08-21T02:58:58.952Z,17.18
2022-08-21T03:01:26.108Z,17.13
2022-08-21T03:03:53.094Z,17.17
2022-08-21T03:07:04.189Z,17.08
2022-08-21T03:10:12.288Z,17.03
2022-08-21T03:12:39.155Z,17.06
2022-08-21T03:15:18.461Z,17.10
2022-08-21T03:21:42.227Z,16.99
2022-08-21T03:24:30.990Z,16.98
2022-08-21T03:31:03.477Z,16.85
2022-08-21T03:33:56.119Z,16.83
2022-08-21T03:40:24.752Z,16.81
2022-08-21T03:43:00.085Z,16.79
2022-08-21T03:45:35.909Z,16.80
2022-08-21T03:48:04.865Z,16.75
2022-08-21T03:50:51.018Z,16.67
2022-08-21T03:53:18.170Z,16.64
2022-08-21T03:55:50.306Z,16.65
2022-08-21T03:58:19.046Z,16.71
2022-08-21T04:00:53.082Z,16.64
2022-08-21T04:03:26.997Z,16.67
2022-08-21T04:06:01.009Z,16.61
2022-08-21T04:11:32.861Z,16.46
2022-08-21T04:14:05.773Z,16.38
2022-08-21T04:16:49.922Z,16.34
2022-08-21T04:19:25.713Z,16.39
2022-08-21T04:21:53.924Z,16.33
2022-08-21T04:24:24.803Z,16.31
2022-08-21T04:26:56.658Z,16.34
2022-08-21T04:29:42.333Z,16.34
2022-08-21T04:32:23.129Z,16.53
2022-08-21T04:35:12.814Z,16.53
2022-08-21T04:37:42.008Z,16.57
2022-08-21T04:40:18.010Z,16.62
2022-08-21T04:46:22.933Z,16.43
2022-08-21T04:48:49.855Z,16.51
2022-08-21T04:51:31.285Z,16.48
2022-08-21T04:54:15.781Z,16.54
2022-08-21T04:57:13.334Z,16.56
2022-08-21T04:59:43.583Z,16.64
2022-08-21T05:02:11.101Z,16.58
2022-08-21T05:04:45.075Z,16.67
2022-08-21T05:07:43.173Z,16.61
2022-08-21T05:10:43.152Z,16.64
2022-08-21T05:13:36.905Z,16.51
2022-08-21T05:16:37.110Z,16.64
2022-08-21T05:19:08.552Z,16.70
2022-08-21T05:21:35.721Z,16.56
2022-08-21T05:24:05.867Z,16.62
2022-08-21T05:26:49.358Z,16.60
2022-08-21T05:29:18.154Z,16.59
2022-08-21T05:31:46.520Z,16.71
2022-08-21T05:34:16.088Z,16.58
2022-08-21T05:36:43.148Z,16.32
2022-08-21T05:39:09.931Z,16.26
2022-08-21T05:41:36.712Z,16.27
2022-08-21T05:44:03.601Z,16.40
2022-08-21T05:46:37.719Z,16.46
2022-08-21T05:49:04.499Z,16.47
2022-08-21T05:51:31.904Z,16.49
2022-08-21T05:53:58.740Z,16.60
2022-08-21T05:56:25.443Z,16.57
2022-08-21T05:58:52.142Z,16.56
2022-08-21T06:01:18.928Z,16.46
2022-08-21T06:03:45.697Z,16.56
2022-08-21T06:06:12.579Z,16.58
2022-08-21T06:08:39.411Z,16.54
2022-08-21T06:11:10.015Z,16.47
2022-08-21T06:13:40.148Z,16.57
2022-08-21T06:16:15.680Z,16.54
2022-08-21T06:18:44.883Z,16.60
2022-08-21T06:21:12.761Z,16.68
2022-08-21T06:27:38.849Z,16.78
2022-08-21T06:30:17.885Z,16.80
2022-08-21T07:39:15.872Z,17.82
2022-08-21T07:41:46.353Z,17.90
2022-08-21T07:44:15.949Z,17.97
2022-08-21T07:46:55.035Z,18.04
2022-08-21T07:49:34.064Z,18.18
2022-08-21T07:52:24.899Z,18.23
2022-08-21T07:55:24.686Z,18.30
2022-08-21T08:05:28.491Z,18.43
2022-08-21T08:08:15.984Z,18.48
2022-08-21T08:11:09.174Z,18.51
2022-08-21T08:14:26.524Z,18.50
2022-08-21T08:20:52.040Z,18.71
2022-08-21T08:45:15.082Z,19.03
2022-08-21T08:54:53.892Z,19.18
2022-08-21T08:57:25.377Z,19.25
2022-08-21T09:00:02.574Z,19.34
2022-08-21T09:02:34.645Z,19.54
2022-08-21T09:05:07.405Z,19.60
2022-08-21T09:08:10.261Z,19.65
2022-08-21T09:10:57.727Z,19.63
2022-08-21T09:14:05.154Z,19.65
2022-08-21T09:16:40.643Z,19.78
2022-08-21T09:19:57.194Z,19.80
2022-08-21T09:23:18.406Z,19.85
2022-08-21T09:52:01.831Z,20.54
2022-08-21T09:54:48.065Z,20.56
2022-08-21T10:01:15.356Z,20.72
2022-08-21T10:31:28.560Z,20.87
2022-08-21T10:34:04.095Z,20.91
2022-08-21T10:36:36.796Z,20.90
2022-08-21T10:39:34.889Z,20.78
2022-08-21T10:42:27.472Z,21.00
2022-08-21T10:45:13.488Z,21.01
2022-08-21T10:47:57.337Z,21.03
2022-08-21T10:50:34.866Z,21.10
2022-08-21T10:53:04.588Z,21.11
2022-08-21T10:56:09.630Z,21.17
2022-08-21T10:58:51.867Z,21.20
2022-08-21T11:01:26.036Z,21.19
2022-08-21T11:03:55.942Z,21.15
2022-08-21T11:06:25.752Z,21.13
2022-08-21T11:09:00.827Z,21.22
2022-08-21T11:11:35.836Z,21.25
2022-08-21T11:14:21.783Z,21.24
2022-08-21T11:17:00.687Z,21.26
2022-08-21T11:19:36.406Z,21.24
2022-08-21T11:22:27.114Z,21.38
2022-08-21T11:25:19.289Z,21.52
2022-08-21T11:28:14.827Z,21.48
2022-08-21T11:31:03.864Z,21.61
2022-08-21T11:33:33.689Z,21.68
2022-08-21T11:36:08.591Z,21.65
2022-08-21T11:38:43.413Z,21.72
2022-08-21T11:41:47.397Z,21.70
2022-08-21T11:44:29.454Z,21.56
2022-08-21T11:47:40.587Z,21.77
2022-08-21T11:50:34.914Z,21.86
2022-08-21T11:53:13.663Z,21.95
2022-08-21T11:55:51.564Z,21.98
2022-08-21T11:58:24.374Z,22.05
2022-08-21T12:00:53.837Z,22.09
2022-08-21T12:03:30.066Z,22.19
2022-08-21T12:06:00.447Z,22.14
2022-08-21T12:08:31.672Z,22.37
2022-08-21T12:11:10.948Z,22.32
2022-08-21T12:13:42.656Z,22.36
2022-08-21T12:16:15.444Z,22.37
2022-08-21T12:18:43.215Z,22.51
2022-08-21T12:21:29.511Z,22.50
2022-08-21T12:24:14.503Z,22.63
2022-08-21T12:27:25.940Z,22.63
2022-08-21T12:29:59.983Z,22.62
2022-08-21T12:32:32.325Z,22.60
2022-08-21T12:35:06.354Z,22.60
2022-08-21T12:37:47.200Z,22.58
2022-08-21T12:40:30.180Z,22.49
2022-08-21T12:43:01.000Z,22.37
2022-08-21T12:45:39.837Z,22.35
2022-08-21T12:48:15.891Z,22.29
2022-08-21T12:50:48.785Z,22.35
2022-08-21T12:53:27.840Z,22.56
2022-08-21T12:56:00.975Z,22.71
2022-08-21T12:58:28.691Z,22.87
2022-08-21T13:01:08.165Z,23.08
2022-08-21T13:03:37.431Z,23.28
2022-08-21T13:06:05.828Z,23.66
2022-08-21T13:08:39.489Z,23.90
2022-08-21T13:11:09.292Z,24.02
2022-08-21T13:13:46.850Z,24.29
2022-08-21T13:16:27.609Z,24.55
2022-08-21T13:19:02.702Z,24.40
2022-08-21T13:21:40.692Z,24.43
2022-08-21T13:24:31.987Z,24.63
2022-08-21T13:26:58.534Z,24.83
2022-08-21T13:29:30.247Z,25.01
2022-08-21T13:32:01.044Z,25.32
2022-08-21T13:34:29.868Z,25.81
2022-08-21T13:37:01.114Z,26.05
2022-08-21T13:39:27.859Z,26.26
2022-08-21T13:41:59.504Z,26.48
2022-08-21T13:44:35.380Z,27.02
2022-08-21T13:47:03.905Z,27.20
2022-08-21T13:49:33.801Z,27.12
2022-08-21T13:52:00.586Z,27.14
2022-08-21T13:54:33.425Z,26.90
2022-08-21T13:57:00.135Z,26.60
2022-08-21T13:59:36.557Z,25.97
2022-08-21T14:02:14.197Z,25.61
2022-08-21T14:04:46.988Z,25.60
2022-08-21T14:07:29.757Z,25.78
2022-08-21T14:09:56.706Z,25.20
2022-08-21T14:12:29.732Z,25.21
2022-08-21T14:14:57.846Z,24.88
2022-08-21T14:17:33.445Z,24.79
2022-08-21T14:20:00.979Z,24.92
2022-08-21T14:22:46.221Z,25.40
2022-08-21T14:25:19.597Z,25.67
2022-08-21T14:27:55.970Z,26.14
2022-08-21T14:30:25.325Z,26.37
2022-08-21T14:32:52.181Z,26.85
2022-08-21T14:35:23.556Z,27.09
2022-08-21T14:37:51.589Z,27.27
2022-08-21T14:40:22.550Z,27.42
2022-08-21T14:42:52.832Z,27.10
2022-08-21T14:45:29.587Z,27.11
2022-08-21T14:47:57.489Z,27.21
2022-08-21T14:50:24.706Z,26.80
2022-08-21T14:52:57.453Z,26.44
2022-08-21T14:55:24.697Z,26.38
2022-08-21T14:57:53.151Z,26.16
2022-08-21T15:00:27.018Z,26.09
2022-08-21T15:03:03.184Z,25.78
2022-08-21T15:05:33.835Z,25.20
2022-08-21T15:08:01.656Z,24.77
2022-08-21T15:10:28.940Z,24.47
2022-08-21T15:12:56.214Z,24.20
2022-08-21T15:15:22.921Z,24.01
2022-08-21T15:17:49.657Z,23.90
2022-08-21T15:20:16.357Z,23.82
2022-08-21T15:22:58.178Z,23.69
2022-08-21T15:25:25.018Z,23.53
2022-08-21T15:27:52.120Z,23.45
2022-08-21T15:30:18.891Z,23.34
2022-08-21T15:32:45.737Z,23.28
2022-08-21T15:35:12.454Z,23.28
2022-08-21T15:37:39.187Z,23.26
2022-08-21T15:40:08.213Z,23.27
2022-08-21T15:42:35.336Z,23.21
2022-08-21T15:45:02.339Z,23.18
2022-08-21T15:47:31.231Z,23.14
2022-08-21T15:49:58.020Z,23.10
2022-08-21T15:52:24.834Z,23.13
2022-08-21T15:54:52.350Z,23.20
2022-08-21T15:57:22.212Z,23.21
2022-08-21T15:59:53.443Z,23.25
2022-08-21T16:02:23.586Z,23.32
2022-08-21T16:04:50.324Z,23.35
2022-08-21T16:07:17.178Z,23.51
2022-08-21T16:09:44.088Z,23.74
2022-08-21T16:12:14.415Z,24.13
2022-08-21T16:14:41.163Z,24.39
2022-08-21T16:17:08.514Z,24.62
2022-08-21T16:19:35.947Z,24.48
2022-08-21T16:22:02.886Z,24.27
2022-08-21T16:24:29.598Z,24.14
2022-08-21T16:26:58.008Z,24.07
2022-08-21T16:29:35.077Z,23.90
2022-08-21T16:32:02.322Z,23.78
2022-08-21T16:34:29.477Z,23.74
2022-08-21T16:36:56.210Z,23.86
2022-08-21T16:39:23.245Z,24.37
2022-08-21T16:41:51.212Z,24.27
2022-08-21T16:44:20.052Z,24.30
2022-08-21T16:46:46.813Z,24.36
2022-08-21T16:49:13.925Z,24.38
2022-08-21T16:51:40.632Z,24.24
2022-08-21T16:54:09.891Z,24.15
2022-08-21T16:56:39.752Z,23.94
2022-08-21T16:59:07.340Z,23.62
2022-08-21T17:01:35.399Z,23.51
2022-08-21T17:04:03.486Z,23.38
2022-08-21T17:06:31.384Z,23.30
2022-08-21T17:08:58.991Z,23.22
2022-08-21T17:11:37.897Z,23.20
2022-08-21T17:14:12.631Z,23.29
2022-08-21T17:16:41.618Z,23.33
2022-08-21T17:19:08.761Z,23.43
2022-08-21T17:21:35.671Z,23.54
2022-08-21T17:24:02.622Z,23.49
2022-08-21T17:26:29.663Z,23.55
2022-08-21T17:28:56.432Z,23.64
2022-08-21T17:31:23.289Z,23.74
2022-08-21T17:33:53.749Z,23.84
2022-08-21T17:36:28.875Z,23.79
2022-08-21T17:38:56.815Z,23.74
2022-08-21T17:41:25.153Z,23.61
2022-08-21T17:43:52.320Z,23.51
2022-08-21T17:46:22.568Z,23.49
2022-08-21T17:48:49.389Z,23.40
2022-08-21T17:51:17.081Z,23.38
2022-08-21T17:53:45.100Z,23.36
2022-08-21T17:56:14.732Z,23.27
2022-08-21T17:58:44.062Z,23.10
2022-08-21T18:01:11.265Z,22.94
2022-08-21T18:03:38.373Z,22.79
2022-08-21T18:06:07.669Z,22.76
2022-08-21T18:08:35.035Z,22.60
2022-08-21T18:11:01.974Z,22.50
2022-08-21T18:13:33.276Z,22.32
2022-08-21T18:16:01.232Z,22.17
2022-08-21T18:18:29.543Z,22.04
2022-08-21T18:20:56.356Z,21.95
2022-08-21T18:23:43.113Z,21.91
2022-08-21T18:26:10.261Z,21.72
2022-08-21T18:28:38.596Z,21.66
2022-08-21T18:31:08.944Z,21.60
2022-08-21T18:33:37.405Z,21.55
2022-08-21T18:36:04.820Z,21.52
2022-08-21T18:38:31.782Z,21.50
2022-08-21T18:40:59.836Z,21.28
2022-08-21T18:43:27.012Z,21.13
2022-08-21T18:45:54.203Z,21.04
2022-08-21T18:48:21.105Z,21.02
2022-08-21T18:50:53.682Z,20.86
2022-08-21T18:53:27.311Z,20.72
2022-08-21T18:55:56.947Z,20.60
2022-08-21T18:58:25.290Z,20.49
2022-08-21T19:00:52.819Z,20.52
2022-08-21T19:03:23.921Z,20.45
2022-08-21T19:05:52.711Z,20.41
2022-08-21T19:08:21.583Z,20.27
2022-08-21T19:10:49.709Z,20.12
2022-08-21T19:13:35.571Z,19.91
2022-08-21T19:20:07.469Z,19.55
2022-08-21T19:23:40.419Z,19.51
2022-08-21T19:26:33.011Z,19.44
2022-08-21T19:29:45.872Z,19.37
2022-08-21T19:40:57.761Z,19.09
2022-08-21T19:43:59.326Z,19.07
2022-08-21T19:56:22.472Z,18.78
2022-08-21T20:02:48.831Z,18.72
2022-08-21T20:06:02.965Z,18.73
2022-08-21T20:08:58.031Z,18.67
2022-08-21T20:12:47.616Z,18.60
2022-08-21T20:15:41.788Z,18.51
2022-08-21T20:21:46.195Z,18.47
2022-08-21T20:25:22.629Z,18.37
2022-08-21T20:32:32.549Z,18.13
2022-08-21T20:36:07.297Z,18.07
2022-08-21T20:39:56.188Z,18.03
2022-08-21T20:43:03.331Z,17.87
2022-08-21T20:50:38.864Z,17.66
2022-08-21T20:54:19.773Z,17.57
2022-08-21T21:02:32.734Z,17.55
2022-08-21T21:24:57.781Z,17.43
2022-08-21T21:58:39.485Z,17.30
2022-08-21T23:10:55.445Z,16.51
2022-08-21T23:13:47.231Z,16.43
